Redwood City, CA (94065)

02:17 PDT le 28 Mars 2015 (GMT -0700)
Belmont - Island Park | | Change Station
CLOSE
Current Station
Stations météorologiques personnelles
Location: Belmont, CA
Altitude: 5 ft
Stations météo à proximité

Alt. 5 ft 37.53 °N, 122.27 °W | Updated 20 seconds ago

Clear
Ciel dégagé
51.3 ° F
Paraît 51.3 ° F
N
0.0
Vent Variable Vent de SSO
Gusts 0.0 mph

Aujourd'hui
Haut(e) -- | Bas -- ° F
--% Risque de précip.
Hier
Haut(e) -- | Bas -- ° F
Precip. -- pouce
7:00 AM 7:28 PM
Premier quartier, 60% visible
Pression 30.18 pouce
Visibilité 10.0 Miles terrestres
Nuages Ciel dégagé
Point de rosée 49 ° F
Humidité 93%
Précipitations 0.00 pouce
Profondeur de la couche neigeuse Non disponible.
UV 0 sur 12
Pollen 8.30 sur 12
Qualité de l'air Non disponible.
Flu Activity Non disponible.
METAR KSQL 280855Z AUTO 32003KT 10SM CLR 13/09 A3018 RMK AO2

More Conditions Fewer Conditions

Pression 30.18 pouce
Visibilité 10.0 Miles terrestres
Nuages Ciel dégagé
Point de rosée 49 ° F
Humidité 93%
Précipitations 0.00 pouce
Profondeur de la couche neigeuse Non disponible.
UV 0 sur 12
Pollen 8.30 sur 12
Qualité de l'air Non disponible.
Flu Activity Non disponible.
METAR KSQL 280855Z AUTO 32003KT 10SM CLR 13/09 A3018 RMK AO2

More Conditions Fewer Conditions

10-Day Weather Forecast

Almanac

Astronomie

Mar. 28, 2015 Lever Coucher
Temps réel
Crépuscule civil
Crépuscule nautique
Crépuscule astronomique
Lune
Durée de lumière visible
Longueur du jour
Tomorrow will be .
, % of the Moon is Illuminated

Extrêmes aujourd'hui

State Highs State Lows

Community

WunderPhotos

Upload Photos

1,808,939 Photos téléchargées !

WunderBlogs® & News

Nearby

Qualité de l'air

  Qualité de l'air Indice de la qualité de l'air Polluant
Not available.

Épaisseur de neige

Station Depth Altitude

Activité sismique

Ville Distance Mag. Time & Date
Minimum magnitude displayed is 2.5.

Températures des eaux côtières

Lieu Température

Stations

Stations météo à proximité

Emplacement de la station Température Refroidissement éolien Point de rosée Humidité Vent Precip. Alt. Mise à jour Type